Time;durP1;ratioP1;P1;durP2;ratioP2;P2;SDS_P1;SDS_P2;PMS_P1;PMS_P2;Temp;Humidity;BMP_temperature;BMP_pressure;BME280_temperature;BME280_humidity;BME280_pressure;Samples;Min_cycle;Max_cycle;Signal;HPM_P1;HPM_P2
2024/01/20 00:01:36;;;;;;;20.85;2.58;;;0.30;99.90;;;;;;5085233;28;20126;-76
2024/01/20 00:04:01;;;;;;;3.53;2.25;;;0.30;99.90;;;;;;5091242;28;20062;-76
2024/01/20 00:06:27;;;;;;;3.30;1.30;;;0.30;99.90;;;;;;5071339;28;20312;-76
2024/01/20 00:08:53;;;;;;;2.78;2.20;;;0.30;99.90;;;;;;5069248;28;20154;-75
2024/01/20 00:11:18;;;;;;;2.15;1.45;;;0.20;99.90;;;;;;5085986;28;20058;-74
2024/01/20 00:13:44;;;;;;;2.10;1.20;;;0.20;99.90;;;;;;5089594;27;20039;-73
2024/01/20 00:16:09;;;;;;;1.60;1.25;;;0.20;99.90;;;;;;5091601;28;20038;-75
2024/01/20 00:18:35;;;;;;;1.23;0.88;;;0.20;99.90;;;;;;5088285;28;20035;-77
2024/01/20 00:21:00;;;;;;;2.60;2.42;;;0.20;99.90;;;;;;5091589;28;20046;-73
2024/01/20 00:23:26;;;;;;;1.27;1.17;;;0.20;99.90;;;;;;5098800;28;20047;-74
2024/01/20 00:25:51;;;;;;;2.95;2.63;;;0.20;99.90;;;;;;5080898;27;20595;-76
2024/01/20 00:28:18;;;;;;;2.20;1.92;;;0.20;99.90;;;;;;5080399;27;20043;-78
2024/01/20 00:30:43;;;;;;;2.50;1.83;;;0.20;99.90;;;;;;5093683;27;20039;-74
2024/01/20 00:33:09;;;;;;;1.30;1.23;;;0.20;99.90;;;;;;5089098;28;20119;-75
2024/01/20 00:35:36;;;;;;;1.30;1.20;;;0.20;99.90;;;;;;5079203;27;20065;-76
2024/01/20 00:38:02;;;;;;;1.77;0.98;;;0.20;99.90;;;;;;5086191;28;20031;-76
2024/01/20 00:40:28;;;;;;;1.27;1.20;;;0.10;99.90;;;;;;5092397;28;20076;-79
2024/01/20 00:42:54;;;;;;;3.72;1.98;;;0.20;99.90;;;;;;5085613;28;20130;-77
2024/01/20 00:45:19;;;;;;;2.92;1.50;;;0.10;99.90;;;;;;5092773;27;20104;-76
2024/01/20 00:47:45;;;;;;;1.73;1.40;;;0.10;99.90;;;;;;5071576;28;20040;-76
2024/01/20 00:50:11;;;;;;;1.25;1.15;;;0.10;99.90;;;;;;5091600;27;20076;-76
2024/01/20 00:52:36;;;;;;;1.92;1.73;;;0.10;99.90;;;;;;5099004;28;20363;-75
2024/01/20 00:55:02;;;;;;;2.03;1.70;;;0.00;99.90;;;;;;5098750;27;20494;-76
2024/01/20 00:57:28;;;;;;;2.13;1.65;;;0.00;99.90;;;;;;5095254;28;20130;-76
2024/01/20 00:59:56;;;;;;;1.50;1.15;;;0.00;99.90;;;;;;5088044;28;20028;-73
2024/01/20 01:02:24;;;;;;;1.88;1.65;;;-0.10;99.90;;;;;;5090528;28;20047;-71
2024/01/20 01:04:49;;;;;;;2.00;1.55;;;-0.10;99.90;;;;;;5097067;28;20047;-74
2024/01/20 01:07:15;;;;;;;7.70;3.50;;;-0.10;99.90;;;;;;5090815;28;20032;-75
2024/01/20 01:09:40;;;;;;;5.88;2.50;;;-0.10;99.90;;;;;;5102107;27;20409;-77
2024/01/20 01:12:06;;;;;;;2.33;2.00;;;-0.10;99.90;;;;;;5081619;27;20035;-75
2024/01/20 01:14:31;;;;;;;2.25;2.05;;;-0.10;99.90;;;;;;5078126;28;20028;-74
2024/01/20 01:16:57;;;;;;;4.70;2.67;;;-0.10;99.90;;;;;;5106743;27;20049;-72
2024/01/20 01:19:23;;;;;;;3.15;2.25;;;-0.10;99.90;;;;;;5089359;27;20375;-75
2024/01/20 01:21:48;;;;;;;3.58;2.47;;;-0.10;99.90;;;;;;5108546;27;20401;-74
2024/01/20 01:24:14;;;;;;;2.53;2.33;;;0.00;99.90;;;;;;5092247;27;20044;-74
2024/01/20 01:26:39;;;;;;;1.00;0.95;;;-0.10;99.90;;;;;;5075861;27;20536;-73
2024/01/20 01:29:05;;;;;;;1.75;1.65;;;-0.10;99.90;;;;;;5097122;27;20477;-76
2024/01/20 01:31:31;;;;;;;2.20;1.85;;;-0.10;99.90;;;;;;5096761;27;20497;-72
2024/01/20 01:33:56;;;;;;;4.00;1.45;;;-0.10;99.90;;;;;;5098586;27;20040;-74
2024/01/20 01:36:22;;;;;;;1.42;1.33;;;0.00;99.90;;;;;;5098750;28;20050;-73
2024/01/20 01:38:48;;;;;;;5.63;2.42;;;-0.10;99.90;;;;;;5097494;27;20074;-76
2024/01/20 01:41:14;;;;;;;2.70;2.50;;;-0.10;99.90;;;;;;5096714;27;20040;-75
2024/01/20 01:43:39;;;;;;;2.47;2.30;;;-0.10;99.90;;;;;;5097372;28;20051;-74
2024/01/20 01:46:05;;;;;;;15.30;2.45;;;-0.10;99.90;;;;;;5104860;27;20128;-71
2024/01/20 01:48:30;;;;;;;10.65;1.80;;;0.00;99.90;;;;;;5099774;28;20078;-74
2024/01/20 01:50:57;;;;;;;5.78;3.92;;;0.00;99.90;;;;;;5101162;27;20031;-72
2024/01/20 01:53:23;;;;;;;3.35;2.40;;;-0.10;99.90;;;;;;5087606;27;20114;-75
2024/01/20 01:55:50;;;;;;;2.58;2.38;;;0.00;99.90;;;;;;5096121;28;20115;-77
2024/01/20 01:58:15;;;;;;;3.72;1.98;;;0.00;99.90;;;;;;5085809;27;20027;-76
2024/01/20 02:00:41;;;;;;;7.18;2.38;;;0.00;99.90;;;;;;5092724;27;20047;-76
2024/01/20 02:03:09;;;;;;;1.55;1.45;;;-0.10;99.90;;;;;;5089241;27;20130;-75
2024/01/20 02:05:35;;;;;;;2.28;1.83;;;-0.10;99.90;;;;;;5098222;27;20093;-73
2024/01/20 02:08:01;;;;;;;5.53;4.10;;;-0.10;99.90;;;;;;5095929;27;20434;-74
2024/01/20 02:10:27;;;;;;;3.45;2.35;;;-0.10;99.90;;;;;;5099554;27;20070;-76
2024/01/20 02:12:53;;;;;;;2.03;1.92;;;0.00;99.90;;;;;;5087849;28;20051;-72
2024/01/20 02:15:19;;;;;;;3.53;2.33;;;-0.10;99.90;;;;;;5112118;27;20082;-76
2024/01/20 02:17:55;;;;;;;1.33;1.20;;;-0.10;99.90;;;;;;5099537;27;20130;-74
2024/01/20 02:20:22;;;;;;;2.38;1.85;;;-0.10;99.90;;;;;;5091984;28;20482;-73
2024/01/20 02:22:47;;;;;;;3.97;2.00;;;-0.10;99.90;;;;;;5091903;27;20093;-77
2024/01/20 02:25:13;;;;;;;5.88;3.50;;;-0.20;99.90;;;;;;5103892;27;20431;-77
2024/01/20 02:27:38;;;;;;;2.70;2.35;;;-0.20;99.90;;;;;;5084008;27;20039;-73
2024/01/20 02:30:05;;;;;;;4.65;2.60;;;-0.20;99.90;;;;;;5098673;27;20493;-72
2024/01/20 02:32:30;;;;;;;2.55;1.35;;;-0.20;99.90;;;;;;5096936;27;20386;-73
2024/01/20 02:34:56;;;;;;;3.47;3.17;;;-0.20;99.90;;;;;;5098971;27;20035;-73
2024/01/20 02:37:21;;;;;;;2.65;2.42;;;-0.20;99.90;;;;;;5084182;27;20035;-75
2024/01/20 02:39:47;;;;;;;2.58;2.22;;;-0.30;99.90;;;;;;5096348;27;20027;-75
2024/01/20 02:42:12;;;;;;;2.97;2.58;;;-0.30;99.90;;;;;;5097708;27;20047;-74
2024/01/20 02:44:38;;;;;;;3.50;2.00;;;-0.30;99.90;;;;;;5096030;28;20180;-76
2024/01/20 02:47:04;;;;;;;5.63;1.40;;;-0.30;99.90;;;;;;5104939;27;20112;-74
2024/01/20 02:49:30;;;;;;;1.90;1.48;;;-0.20;99.90;;;;;;5093386;28;20070;-76
2024/01/20 02:51:56;;;;;;;1.13;1.05;;;-0.30;99.90;;;;;;5092483;27;20549;-73
2024/01/20 02:54:21;;;;;;;15.00;3.45;;;-0.30;99.90;;;;;;5095190;27;20123;-77
2024/01/20 02:56:47;;;;;;;1.60;1.02;;;-0.30;99.90;;;;;;5101615;27;20038;-78
2024/01/20 02:59:13;;;;;;;3.80;2.45;;;-0.40;99.90;;;;;;5092836;28;20046;-72
2024/01/20 03:01:38;;;;;;;3.20;2.20;;;-0.40;99.90;;;;;;5093296;27;20084;-71
2024/01/20 03:04:04;;;;;;;1.67;1.58;;;-0.50;99.90;;;;;;5092881;27;20158;-76
2024/01/20 03:06:29;;;;;;;3.05;1.65;;;-0.50;99.90;;;;;;5096881;27;20068;-74
2024/01/20 03:08:55;;;;;;;8.35;1.75;;;-0.50;99.90;;;;;;5084344;27;20044;-77
2024/01/20 03:11:21;;;;;;;2.97;1.58;;;-0.50;99.90;;;;;;5100566;27;20503;-74
2024/01/20 03:13:46;;;;;;;4.03;2.83;;;-0.50;99.90;;;;;;5095141;27;20509;-72
2024/01/20 03:16:12;;;;;;;1.55;1.45;;;-0.60;99.90;;;;;;5091965;28;20031;-73
2024/01/20 03:18:37;;;;;;;5.85;2.63;;;-0.60;99.90;;;;;;5090272;27;20397;-71
2024/01/20 03:21:04;;;;;;;1.42;1.33;;;-0.60;99.90;;;;;;5087643;27;20044;-72
2024/01/20 03:23:29;;;;;;;1.88;1.70;;;-0.60;99.90;;;;;;5107764;27;20419;-73
2024/01/20 03:25:55;;;;;;;7.00;2.03;;;-0.60;99.90;;;;;;5093702;27;20164;-75
2024/01/20 03:28:21;;;;;;;2.25;2.05;;;-0.60;99.90;;;;;;5101138;27;20051;-72
2024/01/20 03:30:47;;;;;;;7.13;2.47;;;-0.60;99.90;;;;;;5091937;28;20046;-74
2024/01/20 03:33:13;;;;;;;3.92;2.53;;;-0.50;99.90;;;;;;5088433;28;20043;-77
2024/01/20 03:35:38;;;;;;;7.05;2.67;;;-0.50;99.90;;;;;;5091701;28;20039;-72
2024/01/20 03:38:04;;;;;;;3.08;1.77;;;-0.40;99.90;;;;;;5106609;27;20374;-72
2024/01/20 03:40:30;;;;;;;3.22;2.83;;;-0.40;99.90;;;;;;5095189;27;20031;-72
2024/01/20 03:42:55;;;;;;;2.92;2.53;;;-0.40;99.90;;;;;;5092202;28;20059;-76
2024/01/20 03:45:21;;;;;;;2.15;1.90;;;-0.40;99.90;;;;;;5095672;27;20043;-73
2024/01/20 03:47:47;;;;;;;3.72;3.35;;;-0.40;99.90;;;;;;5089144;27;20063;-72
2024/01/20 03:50:12;;;;;;;3.50;1.83;;;-0.50;99.90;;;;;;5104247;27;20035;-71
2024/01/20 03:52:38;;;;;;;2.83;2.28;;;-0.40;99.90;;;;;;5075539;27;20043;-73
2024/01/20 03:55:04;;;;;;;1.02;1.00;;;-0.40;99.90;;;;;;5089769;28;20136;-73
2024/01/20 03:57:29;;;;;;;2.70;1.67;;;-0.40;99.90;;;;;;5077576;27;20444;-74
2024/01/20 03:59:55;;;;;;;8.40;3.08;;;-0.40;99.90;;;;;;5098890;27;20035;-77
2024/01/20 04:02:20;;;;;;;2.17;1.42;;;-0.50;99.90;;;;;;5105049;28;20375;-73
2024/01/20 04:04:46;;;;;;;9.43;4.00;;;-0.50;99.90;;;;;;5095398;27;20396;-74
2024/01/20 04:07:11;;;;;;;8.00;3.75;;;-0.50;99.90;;;;;;5083962;27;20039;-71
2024/01/20 04:09:37;;;;;;;4.25;1.50;;;-0.50;99.90;;;;;;5095966;27;20039;-74
2024/01/20 04:12:03;;;;;;;10.60;2.70;;;-0.60;99.90;;;;;;5085824;27;20133;-71
2024/01/20 04:14:29;;;;;;;2.60;2.40;;;-0.60;99.90;;;;;;5101659;28;20043;-73
2024/01/20 04:16:54;;;;;;;7.95;2.47;;;-0.60;99.90;;;;;;5100303;27;20031;-71
2024/01/20 04:19:20;;;;;;;3.03;2.28;;;-0.60;99.90;;;;;;5094162;27;20498;-71
2024/01/20 04:21:45;;;;;;;10.48;2.55;;;-0.60;99.90;;;;;;5085048;27;20031;-73
2024/01/20 04:24:11;;;;;;;3.00;2.38;;;-0.60;99.90;;;;;;5102159;27;20068;-72
2024/01/20 04:26:36;;;;;;;2.50;2.30;;;-0.60;99.90;;;;;;5096746;27;20038;-72
2024/01/20 04:29:02;;;;;;;6.80;3.00;;;-0.70;99.90;;;;;;5101597;27;20039;-69
2024/01/20 04:31:29;;;;;;;2.70;2.15;;;-0.70;99.90;;;;;;5095179;28;20413;-69
2024/01/20 04:33:55;;;;;;;2.63;1.80;;;-0.70;99.90;;;;;;5115994;27;20036;-70
2024/01/20 04:36:21;;;;;;;3.67;2.97;;;-0.70;99.90;;;;;;5088706;27;20044;-70
2024/01/20 04:38:47;;;;;;;10.75;3.95;;;-0.70;99.90;;;;;;5093819;28;20628;-70
2024/01/20 04:41:12;;;;;;;3.25;2.75;;;-0.70;99.90;;;;;;5096683;28;20040;-71
2024/01/20 04:43:38;;;;;;;2.72;2.40;;;-0.70;99.90;;;;;;5098472;27;20338;-70
2024/01/20 04:46:04;;;;;;;1.73;1.33;;;-0.70;99.90;;;;;;5084204;28;20478;-72
2024/01/20 04:48:31;;;;;;;10.20;2.97;;;-0.70;99.90;;;;;;5087920;28;20401;-73
2024/01/20 04:50:56;;;;;;;9.25;3.65;;;-0.70;99.90;;;;;;5089009;28;20379;-75
2024/01/20 04:53:22;;;;;;;4.82;3.83;;;-0.70;99.90;;;;;;5088111;28;20550;-73
2024/01/20 04:55:48;;;;;;;4.28;3.97;;;-0.80;99.90;;;;;;5098833;27;20080;-72
2024/01/20 04:58:14;;;;;;;3.00;1.98;;;-0.80;99.90;;;;;;5093759;28;20508;-75
2024/01/20 05:00:44;;;;;;;1.77;1.00;;;-0.80;99.90;;;;;;5090230;28;20527;-73
2024/01/20 05:03:10;;;;;;;6.78;2.40;;;-0.80;99.90;;;;;;5108868;27;20140;-70
2024/01/20 05:05:36;;;;;;;1.80;1.40;;;-0.80;99.90;;;;;;5095852;28;20533;-74
2024/01/20 05:08:02;;;;;;;2.75;2.13;;;-0.80;99.90;;;;;;5088888;28;20074;-73
2024/01/20 05:10:27;;;;;;;2.75;2.55;;;-0.90;99.90;;;;;;5072882;28;20577;-72
2024/01/20 05:12:53;;;;;;;3.63;2.60;;;-0.90;99.90;;;;;;5094122;28;20504;-71
2024/01/20 05:15:18;;;;;;;2.40;2.15;;;-0.90;99.90;;;;;;5092865;28;20561;-71
2024/01/20 05:17:44;;;;;;;8.48;2.20;;;-0.90;99.90;;;;;;5092595;28;20063;-71
2024/01/20 05:20:14;;;;;;;6.57;2.80;;;-0.80;99.90;;;;;;5086212;28;20047;-72
2024/01/20 05:22:39;;;;;;;4.72;2.22;;;-0.80;99.90;;;;;;5090440;28;20043;-73
2024/01/20 05:25:06;;;;;;;0.85;0.85;;;-0.90;99.90;;;;;;5096765;28;20384;-70
2024/01/20 05:27:31;;;;;;;5.80;2.53;;;-0.90;99.90;;;;;;5091569;28;20406;-74
2024/01/20 05:29:57;;;;;;;3.55;2.20;;;-0.90;99.90;;;;;;5090754;28;20031;-71
2024/01/20 05:32:22;;;;;;;3.65;2.22;;;-0.90;99.90;;;;;;5089594;28;20050;-73
2024/01/20 05:34:48;;;;;;;6.72;2.83;;;-0.90;99.90;;;;;;5104675;28;20067;-76
2024/01/20 05:37:14;;;;;;;3.70;2.78;;;-0.90;99.90;;;;;;5089771;28;20525;-70
2024/01/20 05:39:40;;;;;;;2.97;1.92;;;-0.90;99.90;;;;;;5091618;28;20067;-74
2024/01/20 05:42:05;;;;;;;4.40;2.63;;;-0.90;99.90;;;;;;5108925;28;20046;-75
2024/01/20 05:44:31;;;;;;;8.70;4.70;;;-0.80;99.90;;;;;;5077807;28;20035;-73
2024/01/20 05:46:56;;;;;;;1.70;1.60;;;-0.80;99.90;;;;;;5071563;28;20032;-74
2024/01/20 05:49:22;;;;;;;1.33;1.23;;;-0.80;99.90;;;;;;5093741;28;20390;-72
2024/01/20 05:51:48;;;;;;;1.20;1.15;;;-0.80;99.90;;;;;;5095696;28;20509;-71
2024/01/20 05:54:13;;;;;;;5.93;2.83;;;-0.90;99.90;;;;;;5088310;28;20028;-73
2024/01/20 05:56:39;;;;;;;3.58;2.40;;;-0.80;99.90;;;;;;5084103;27;20103;-72
2024/01/20 05:59:04;;;;;;;4.03;2.85;;;-0.80;99.90;;;;;;5093201;28;20069;-71
2024/01/20 06:01:30;;;;;;;1.83;1.73;;;-0.80;99.90;;;;;;5130627;27;20535;-72
2024/01/20 06:03:55;;;;;;;1.95;1.70;;;-0.80;99.90;;;;;;5097078;28;20494;-71
2024/01/20 06:06:21;;;;;;;4.38;3.55;;;-0.90;99.90;;;;;;5117048;27;20067;-71
2024/01/20 06:08:47;;;;;;;4.93;2.42;;;-0.90;99.90;;;;;;5093839;28;20113;-71
2024/01/20 06:11:13;;;;;;;2.40;2.17;;;-0.90;99.90;;;;;;5103260;27;20503;-71
2024/01/20 06:13:38;;;;;;;4.15;1.92;;;-0.90;99.90;;;;;;5099040;27;20130;-75
2024/01/20 06:16:07;;;;;;;5.78;2.78;;;-0.90;99.90;;;;;;5091465;28;20101;-74
2024/01/20 06:18:33;;;;;;;1.77;1.65;;;-0.80;99.90;;;;;;5095733;28;20398;-70
2024/01/20 06:20:59;;;;;;;3.15;1.70;;;-0.80;99.90;;;;;;5103131;28;20048;-77
2024/01/20 06:23:25;;;;;;;4.05;1.42;;;-0.90;99.90;;;;;;5091450;27;20130;-69
2024/01/20 06:25:51;;;;;;;10.00;1.20;;;-0.80;99.90;;;;;;5092006;28;20035;-74
2024/01/20 06:28:17;;;;;;;2.10;1.83;;;-0.70;99.90;;;;;;5097878;27;20478;-69
2024/01/20 06:30:46;;;;;;;8.40;2.95;;;-0.80;99.90;;;;;;5093500;28;20075;-71
2024/01/20 06:33:12;;;;;;;3.63;2.42;;;-0.80;99.90;;;;;;5096199;27;20398;-71
2024/01/20 06:35:37;;;;;;;2.42;1.90;;;-0.80;99.90;;;;;;5093249;27;20036;-72
2024/01/20 06:38:03;;;;;;;2.10;2.00;;;-0.90;99.90;;;;;;5101275;27;20043;-70
2024/01/20 06:40:29;;;;;;;8.27;2.95;;;-0.80;99.90;;;;;;5093845;27;20033;-74
2024/01/20 06:42:54;;;;;;;7.20;2.70;;;-0.80;99.90;;;;;;5098824;27;20031;-73
2024/01/20 06:45:20;;;;;;;3.70;3.22;;;-0.80;99.90;;;;;;5090940;27;20067;-72
2024/01/20 06:47:45;;;;;;;2.25;2.13;;;-0.80;99.90;;;;;;5077669;28;20039;-73
2024/01/20 06:50:12;;;;;;;1.98;1.70;;;-0.80;99.90;;;;;;5097829;27;20039;-75
2024/01/20 06:52:38;;;;;;;2.20;1.60;;;-0.80;99.90;;;;;;5097905;27;20118;-71
2024/01/20 06:55:05;;;;;;;2.40;0.98;;;-0.80;99.90;;;;;;5085504;27;20117;-70
2024/01/20 06:57:31;;;;;;;2.67;1.35;;;-0.80;99.90;;;;;;5096013;28;20047;-73
2024/01/20 06:59:56;;;;;;;3.67;1.50;;;-0.70;99.90;;;;;;5101675;27;20027;-71
2024/01/20 07:02:22;;;;;;;2.22;1.60;;;-0.80;99.90;;;;;;5090340;27;20078;-72
2024/01/20 07:04:47;;;;;;;1.95;1.85;;;-0.80;99.90;;;;;;5091476;27;20054;-73
2024/01/20 07:07:13;;;;;;;6.38;2.30;;;-0.80;99.90;;;;;;5097583;27;20430;-73
2024/01/20 07:09:39;;;;;;;6.18;1.75;;;-0.70;99.90;;;;;;5080342;27;20172;-72
2024/01/20 07:12:06;;;;;;;6.57;2.55;;;-0.70;99.90;;;;;;5079789;27;20054;-78
2024/01/20 07:14:32;;;;;;;10.15;3.72;;;-0.70;99.90;;;;;;5106460;27;20038;-76
2024/01/20 07:16:57;;;;;;;2.85;1.88;;;-0.60;99.90;;;;;;5100740;27;20489;-74
2024/01/20 07:19:23;;;;;;;1.30;1.15;;;-0.60;99.90;;;;;;5093583;28;20401;-74
2024/01/20 07:21:48;;;;;;;2.30;1.95;;;-0.60;99.90;;;;;;5096013;28;20134;-73
2024/01/20 07:24:14;;;;;;;2.30;1.58;;;-0.60;99.90;;;;;;5098287;27;20039;-76
2024/01/20 07:26:39;;;;;;;2.05;1.95;;;-0.60;99.90;;;;;;5097592;28;20114;-75
2024/01/20 07:29:08;;;;;;;2.10;1.83;;;-0.60;99.90;;;;;;5109579;27;20450;-72
2024/01/20 07:31:34;;;;;;;1.48;0.82;;;-0.60;99.90;;;;;;5078572;28;20143;-75
2024/01/20 07:33:59;;;;;;;2.35;2.15;;;-0.60;99.90;;;;;;5092856;28;20039;-72
2024/01/20 07:36:25;;;;;;;5.13;2.40;;;-0.60;99.90;;;;;;5094336;27;20124;-75
2024/01/20 07:38:50;;;;;;;7.55;2.22;;;-0.60;99.90;;;;;;5096251;28;20100;-71
2024/01/20 07:41:18;;;;;;;4.68;2.92;;;-0.50;99.90;;;;;;5098305;27;20035;-76
2024/01/20 07:43:43;;;;;;;6.60;3.22;;;-0.50;99.90;;;;;;5089133;28;20116;-75
2024/01/20 07:46:09;;;;;;;2.42;2.22;;;-0.50;99.90;;;;;;5097269;27;20126;-73
2024/01/20 07:48:34;;;;;;;4.63;2.03;;;-0.50;99.90;;;;;;5096903;28;20046;-75
2024/01/20 07:51:00;;;;;;;1.70;1.60;;;-0.50;99.90;;;;;;5090643;28;20039;-73
2024/01/20 07:53:27;;;;;;;3.15;1.13;;;-0.50;99.90;;;;;;5089478;27;20490;-71
2024/01/20 07:55:53;;;;;;;2.85;1.92;;;-0.50;99.90;;;;;;5087800;27;20040;-73
2024/01/20 07:58:19;;;;;;;5.55;2.50;;;-0.40;99.90;;;;;;5093247;27;20046;-73
2024/01/20 08:00:44;;;;;;;2.38;2.03;;;-0.40;99.90;;;;;;5096669;27;20478;-74
2024/01/20 08:03:10;;;;;;;7.20;3.92;;;-0.30;99.90;;;;;;5089906;28;20339;-72
2024/01/20 08:05:35;;;;;;;2.85;2.65;;;-0.30;99.90;;;;;;5099076;27;20046;-74
2024/01/20 08:08:01;;;;;;;2.35;1.88;;;-0.30;99.90;;;;;;5089442;27;20043;-73
2024/01/20 08:10:26;;;;;;;2.67;1.63;;;-0.20;99.90;;;;;;5098263;27;20485;-71
2024/01/20 08:12:52;;;;;;;4.28;3.38;;;-0.20;99.90;;;;;;5091015;27;20039;-73
2024/01/20 08:15:17;;;;;;;1.88;1.30;;;-0.10;99.90;;;;;;5097286;27;20089;-73
2024/01/20 08:17:43;;;;;;;1.55;1.08;;;-0.10;99.90;;;;;;5080854;28;20039;-74
2024/01/20 08:20:09;;;;;;;2.63;2.42;;;-0.10;99.90;;;;;;5094053;28;20042;-72
2024/01/20 08:22:35;;;;;;;2.15;1.77;;;0.00;99.90;;;;;;5090811;28;20429;-71
2024/01/20 08:25:03;;;;;;;2.42;0.98;;;0.00;99.90;;;;;;5073354;28;20054;-75
2024/01/20 08:27:28;;;;;;;5.13;2.67;;;0.10;99.90;;;;;;5093695;27;20092;-73
2024/01/20 08:29:54;;;;;;;7.65;1.98;;;0.10;99.90;;;;;;5091013;28;20511;-75
2024/01/20 08:32:19;;;;;;;3.70;2.55;;;0.20;99.90;;;;;;5106647;27;20147;-75
2024/01/20 08:34:45;;;;;;;10.63;2.35;;;0.20;99.90;;;;;;5097921;28;20556;-78
2024/01/20 08:37:11;;;;;;;1.95;1.27;;;0.20;99.90;;;;;;5093249;28;20658;-76
2024/01/20 08:39:36;;;;;;;1.33;1.15;;;0.30;99.90;;;;;;5084561;28;20042;-73
2024/01/20 08:42:03;;;;;;;3.90;1.88;;;0.40;99.90;;;;;;5090077;28;20027;-74
2024/01/20 08:44:30;;;;;;;4.22;2.03;;;0.40;99.90;;;;;;5093746;28;20043;-71
2024/01/20 08:46:55;;;;;;;4.13;3.10;;;0.40;99.90;;;;;;5089073;28;20422;-76
2024/01/20 08:49:22;;;;;;;0.95;0.93;;;0.40;99.90;;;;;;5080998;27;20035;-73
2024/01/20 08:51:47;;;;;;;5.68;2.30;;;0.40;99.90;;;;;;5098393;28;20035;-75
2024/01/20 08:54:13;;;;;;;6.20;1.45;;;0.40;99.90;;;;;;5095850;28;20758;-71
2024/01/20 08:56:38;;;;;;;3.67;3.38;;;0.40;99.90;;;;;;5090161;28;20047;-74
2024/01/20 08:59:04;;;;;;;1.83;1.73;;;0.50;99.90;;;;;;5091397;28;20039;-72
2024/01/20 09:01:30;;;;;;;2.10;1.52;;;0.50;99.90;;;;;;5069415;28;20043;-69
2024/01/20 09:03:55;;;;;;;4.20;1.73;;;0.50;99.90;;;;;;5091105;28;20043;-72
2024/01/20 09:06:21;;;;;;;1.48;1.30;;;0.50;99.90;;;;;;5095533;28;20078;-72
2024/01/20 09:08:46;;;;;;;2.47;2.03;;;0.60;99.90;;;;;;5094954;28;20129;-73
2024/01/20 09:11:12;;;;;;;3.08;2.40;;;0.50;99.90;;;;;;5089202;28;20102;-73
2024/01/20 09:13:37;;;;;;;5.10;2.05;;;0.60;99.90;;;;;;5066451;28;20027;-73
2024/01/20 09:16:03;;;;;;;2.50;2.30;;;0.60;99.90;;;;;;5086648;28;20606;-73
2024/01/20 09:18:29;;;;;;;4.78;1.98;;;0.60;99.90;;;;;;5073404;28;20027;-72
2024/01/20 09:20:54;;;;;;;2.17;1.88;;;0.70;99.90;;;;;;5075383;28;20028;-73
2024/01/20 09:23:20;;;;;;;2.72;2.20;;;0.70;99.90;;;;;;5084299;28;20040;-74
2024/01/20 09:25:46;;;;;;;0.70;0.70;;;0.70;99.90;;;;;;5077178;28;20542;-76
2024/01/20 09:28:11;;;;;;;2.78;1.23;;;0.70;99.90;;;;;;5103529;28;20176;-69
2024/01/20 09:30:38;;;;;;;1.42;1.23;;;0.80;99.90;;;;;;5072835;28;20071;-72
2024/01/20 09:33:06;;;;;;;2.05;1.33;;;0.80;99.90;;;;;;5059599;28;20052;-71
2024/01/20 09:35:32;;;;;;;1.73;1.63;;;0.80;99.90;;;;;;5095070;28;20046;-72
2024/01/20 09:37:58;;;;;;;1.65;1.42;;;0.80;99.90;;;;;;5104446;27;20043;-73
2024/01/20 09:40:23;;;;;;;2.83;1.98;;;0.80;99.90;;;;;;5098397;28;20043;-72
2024/01/20 09:42:50;;;;;;;3.03;1.83;;;0.90;99.90;;;;;;5077822;28;20040;-70
2024/01/20 09:45:15;;;;;;;1.25;1.15;;;0.90;99.90;;;;;;5076089;28;20044;-71
2024/01/20 09:47:41;;;;;;;3.92;1.70;;;0.90;99.90;;;;;;5079141;28;20043;-70
2024/01/20 09:50:07;;;;;;;2.35;1.20;;;0.90;99.90;;;;;;5083232;28;20322;-71
2024/01/20 09:52:45;;;;;;;11.10;4.70;;;1.00;99.90;;;;;;5078367;28;20044;-71
2024/01/20 09:55:21;;;;;;;1.67;1.58;;;1.00;99.90;;;;;;5075576;28;20044;-71
2024/01/20 09:57:48;;;;;;;6.95;3.30;;;1.00;99.90;;;;;;5091191;28;20130;-72
2024/01/20 10:00:16;;;;;;;1.65;1.15;;;1.00;99.90;;;;;;5082174;28;20056;-72
2024/01/20 10:02:45;;;;;;;2.20;1.65;;;1.00;99.90;;;;;;5093370;28;20054;-71
2024/01/20 10:05:11;;;;;;;2.55;2.35;;;1.10;99.90;;;;;;5093470;28;20043;-70
2024/01/20 10:07:37;;;;;;;5.10;2.75;;;1.10;99.90;;;;;;5079307;28;20391;-71
2024/01/20 10:10:03;;;;;;;0.88;0.77;;;1.10;99.90;;;;;;5089791;28;20041;-71
2024/01/20 10:12:28;;;;;;;7.18;2.40;;;1.20;99.90;;;;;;5089698;28;20131;-70
2024/01/20 10:14:54;;;;;;;1.33;1.23;;;1.20;99.90;;;;;;5101926;27;20039;-71
2024/01/20 10:17:20;;;;;;;1.52;0.93;;;1.20;99.90;;;;;;5102400;27;20588;-70
2024/01/20 10:19:46;;;;;;;4.80;1.88;;;1.30;99.90;;;;;;5091506;28;20390;-71
2024/01/20 10:22:12;;;;;;;6.28;2.65;;;1.30;99.90;;;;;;5101102;27;20465;-69
2024/01/20 10:24:51;;;;;;;2.30;1.42;;;1.30;99.90;;;;;;5110131;27;20043;-69
2024/01/20 10:27:18;;;;;;;2.63;1.95;;;1.30;99.90;;;;;;5099243;27;20078;-70
2024/01/20 10:29:46;;;;;;;0.85;0.85;;;1.30;99.90;;;;;;5100700;27;20035;-72
2024/01/20 10:32:11;;;;;;;14.85;1.65;;;1.40;99.90;;;;;;5092340;27;20058;-70
2024/01/20 10:34:37;;;;;;;1.45;1.10;;;1.40;99.90;;;;;;5093079;27;20039;-70
2024/01/20 10:37:12;;;;;;;4.15;1.02;;;1.40;99.90;;;;;;5086680;27;20043;-70
2024/01/20 10:39:44;;;;;;;2.78;1.83;;;1.50;99.90;;;;;;5098738;27;20114;-71
2024/01/20 10:42:12;;;;;;;3.13;2.72;;;1.40;99.90;;;;;;5096822;27;20031;-71
2024/01/20 10:44:42;;;;;;;2.08;1.70;;;1.40;99.90;;;;;;5091158;27;20100;-71
2024/01/20 10:47:15;;;;;;;2.33;0.95;;;1.50;99.90;;;;;;5094225;27;20048;-70
2024/01/20 10:49:45;;;;;;;2.78;1.75;;;1.50;99.90;;;;;;5098190;27;20078;-70
2024/01/20 10:52:12;;;;;;;4.10;1.58;;;1.40;99.90;;;;;;5095604;27;20044;-69
2024/01/20 10:54:40;;;;;;;3.60;2.13;;;1.50;99.90;;;;;;5075311;27;20039;-71
2024/01/20 10:57:06;;;;;;;4.82;2.13;;;1.50;99.90;;;;;;5095674;27;20122;-74
2024/01/20 10:59:37;;;;;;;1.98;1.77;;;1.50;99.90;;;;;;5097992;28;20125;-71
2024/01/20 11:02:04;;;;;;;1.15;1.15;;;1.50;99.90;;;;;;5093798;28;20047;-72
2024/01/20 11:04:35;;;;;;;1.40;1.13;;;1.50;99.90;;;;;;5076559;27;20046;-71
2024/01/20 11:07:00;;;;;;;4.53;2.15;;;1.60;99.90;;;;;;5093891;27;20182;-72
2024/01/20 11:09:26;;;;;;;3.47;1.70;;;1.50;99.90;;;;;;5096433;27;20131;-68
2024/01/20 11:12:04;;;;;;;2.85;1.75;;;1.50;99.90;;;;;;5090191;27;20076;-70
2024/01/20 11:14:30;;;;;;;2.28;2.13;;;1.50;99.90;;;;;;5107413;27;20036;-70
2024/01/20 11:16:56;;;;;;;3.55;1.25;;;1.50;99.90;;;;;;5095559;27;20035;-70
2024/01/20 11:19:25;;;;;;;3.42;1.80;;;1.60;99.90;;;;;;5096326;28;20505;-71
2024/01/20 11:21:51;;;;;;;1.48;1.38;;;1.60;99.90;;;;;;5097701;27;20046;-68
2024/01/20 11:24:16;;;;;;;5.93;1.55;;;1.60;99.90;;;;;;5098679;27;20044;-71
2024/01/20 11:26:42;;;;;;;2.47;1.98;;;1.60;99.90;;;;;;5090185;27;20031;-71
2024/01/20 11:29:08;;;;;;;3.60;1.52;;;1.70;99.90;;;;;;5097447;27;20118;-71
2024/01/20 11:31:34;;;;;;;3.05;1.88;;;1.70;99.90;;;;;;5098017;27;20700;-71
2024/01/20 11:34:02;;;;;;;3.20;2.13;;;1.70;99.90;;;;;;5096633;27;20541;-70
2024/01/20 11:36:32;;;;;;;1.45;1.35;;;1.70;99.90;;;;;;5095637;27;20116;-69
2024/01/20 11:39:00;;;;;;;1.63;1.52;;;1.70;99.90;;;;;;5092332;27;20035;-69
2024/01/20 11:41:26;;;;;;;3.72;2.58;;;1.70;99.90;;;;;;5085791;28;20122;-70
2024/01/20 11:43:52;;;;;;;3.80;2.17;;;1.70;99.90;;;;;;5088695;27;21183;-70
2024/01/20 11:46:18;;;;;;;1.73;0.95;;;1.70;99.90;;;;;;5090123;28;20531;-69
2024/01/20 11:48:47;;;;;;;8.30;2.20;;;1.70;99.90;;;;;;5076102;28;20048;-70
2024/01/20 11:51:12;;;;;;;4.10;3.15;;;1.70;99.90;;;;;;5092444;28;20036;-72
2024/01/20 11:53:38;;;;;;;3.47;1.75;;;1.80;99.90;;;;;;5100324;27;20607;-70
2024/01/20 11:56:05;;;;;;;2.25;1.98;;;1.80;99.90;;;;;;5090780;27;20108;-69
2024/01/20 11:58:31;;;;;;;2.75;1.15;;;1.80;99.90;;;;;;5096441;28;20039;-72
2024/01/20 12:00:58;;;;;;;8.98;2.42;;;1.90;99.90;;;;;;5093536;27;20433;-71
2024/01/20 12:03:25;;;;;;;1.45;1.35;;;1.90;99.90;;;;;;5098808;27;20558;-70
2024/01/20 12:05:51;;;;;;;2.22;1.70;;;1.90;99.90;;;;;;5104530;27;20051;-70
2024/01/20 12:08:17;;;;;;;1.80;1.40;;;1.90;99.90;;;;;;5094294;27;20106;-69
2024/01/20 12:10:43;;;;;;;3.33;2.45;;;1.90;99.90;;;;;;5091593;28;20398;-68
2024/01/20 12:13:14;;;;;;;3.53;2.67;;;2.00;99.90;;;;;;5080300;27;20035;-69
2024/01/20 12:15:40;;;;;;;5.60;2.38;;;2.00;99.90;;;;;;5104322;28;20079;-71
2024/01/20 12:18:06;;;;;;;3.40;1.42;;;2.00;99.90;;;;;;5099301;27;20040;-70
2024/01/20 12:20:33;;;;;;;0.95;0.88;;;2.00;99.90;;;;;;5076084;28;20088;-69
2024/01/20 12:23:02;;;;;;;2.42;1.85;;;2.00;99.90;;;;;;5076976;27;20032;-72
2024/01/20 12:25:29;;;;;;;3.75;1.60;;;2.10;99.90;;;;;;5092484;28;20046;-70
2024/01/20 12:27:57;;;;;;;2.17;1.42;;;2.10;99.90;;;;;;5102607;27;20055;-72
2024/01/20 12:30:23;;;;;;;2.30;1.38;;;2.20;99.90;;;;;;5089916;27;20126;-69
2024/01/20 12:32:48;;;;;;;2.85;2.17;;;2.20;99.90;;;;;;5072862;27;20110;-68
2024/01/20 12:35:15;;;;;;;1.20;1.05;;;2.20;99.90;;;;;;5092256;28;20039;-68
2024/01/20 12:37:41;;;;;;;1.40;0.90;;;2.20;99.90;;;;;;5101784;27;20465;-70
2024/01/20 12:40:07;;;;;;;4.28;2.33;;;2.30;99.90;;;;;;5087262;28;20100;-72
2024/01/20 12:42:33;;;;;;;0.60;0.60;;;2.40;99.90;;;;;;5092786;27;20046;-70
2024/01/20 12:44:59;;;;;;;4.07;2.88;;;2.40;99.90;;;;;;5093470;28;20482;-69